Weather at Ouakda Airport

Public forecast

Using degrees Celsius for public forecast. Weather courtesy of forecast.io.

Closest aviation weather report (METAR) to Ouakda Airport

Closest report is Béchar Boudghene Ben Ali Lotfi Airport, 4.4 nm (8.1 km) W. Retrieved 2020/11/30 20:00 UTC (14 minutes ago):

DAOR 302000Z 15004KT CAVOK 13/03 Q1023

Closest aviation forecast (TAF) to Ouakda Airport

Forecast is more than 12 hours old.

Closest forecast is Béchar Boudghene Ben Ali Lotfi Airport, 4.4 nm (8.1 km) W. Retrieved 2017/11/09 18:03 UTC (3 years ago):

TAF DAOR 091700Z 0918/1009 35010KT 6000 FEW033 SCT100 TEMPO 0918/0924 3000 BLSA PROB40 TEMPO 0918/0924 35020G35KT 2000 -TSRA FEW030CB